This is the latest recevied weather packets stored in our database for station/object OE-11073. If no packets are shown the sender has not sent any weather packets the latest 10 day(s).
| Time | Temp. | Humidity | Pressure | Rain* | Wind** | Luminosity | Snow |
|---|---|---|---|---|---|---|---|
| 1788246311 | 15° C | 83% | - | 0 mm | - | 314 W/m² | - |
| 1788245711 | 14.44° C | 82% | - | 0 mm | - | 291 W/m² | - |
| 1788245111 | 14.44° C | 84% | - | 0 mm | - | 237 W/m² | - |
| 1788244511 | 13.89° C | 86% | - | 0 mm | - | 230 W/m² | - |
| 1788243310 | 13.33° C | 90% | - | 0 mm | - | 184 W/m² | - |
| 1788242711 | 12.78° C | 92% | - | 0 mm | - | 153 W/m² | - |
| 1788242111 | 12.78° C | 92% | - | 0 mm | - | 130 W/m² | - |
| 1788241511 | 12.78° C | 95% | - | 0 mm | - | 99 W/m² | - |
| 1788240911 | 12.22° C | 96% | - | 0 mm | - | 46 W/m² | - |
| 1788240311 | 11.67° C | 97% | - | 0 mm | - | 38 W/m² | - |
| 1788239711 | 11.67° C | 98% | - | 0 mm | - | 23 W/m² | - |
| 1788239111 | 11.67° C | 97% | - | 0 mm | - | 15 W/m² | - |
| 1788238511 | 11.67° C | 97% | - | 0 mm | - | 8 W/m² | - |
| 1788237911 | 11.67° C | 97% | - | 0 mm | - | 0 W/m² | - |
| 1788237311 | 11.67° C | 97% | - | 0 mm | - | 0 W/m² | - |
| 1788236711 | 11.67° C | 97% | - | 0 mm | - | 0 W/m² | - |
| 1788236111 | 11.67° C | 96% | - | 0 mm | - | 0 W/m² | - |
| 1788222312 | 14.44° C | 95% | - | 0 mm | - | 0 W/m² | - |
| 1788221711 | 14.44° C | 95% | - | 0 mm | - | 0 W/m² | - |
| 1788219311 | 14.44° C | 96% | - | 0 mm | - | 0 W/m² | - |
| 1788218711 | 14.44° C | 95% | - | 0 mm | - | 0 W/m² | - |
| 1788215711 | 14.44° C | 93% | - | 0 mm | - | 0 W/m² | - |
| 1788215111 | 15° C | 93% | - | 0 mm | - | 0 W/m² | - |
| 1788214511 | 15° C | 94% | - | 0 mm | - | 0 W/m² | - |
| 1788213911 | 15° C | 95% | - | 0 mm | - | 0 W/m² | - |
* Rain latest hour (hover to see other rain measurements)
** Current wind speed in m/s (hover to see current wind gust speed)